sensor_id;sensor_type;location;lat;lon;timestamp;P1;durP1;ratioP1;P2;durP2;ratioP2
70228;SDS011;57617;51.988;5.854;2022-10-22T00:02:17;9.73;;;5.40;;
70228;SDS011;57617;51.988;5.854;2022-10-22T00:04:44;12.10;;;5.72;;
70228;SDS011;57617;51.988;5.854;2022-10-22T00:07:10;12.90;;;5.63;;
70228;SDS011;57617;51.988;5.854;2022-10-22T00:09:36;10.82;;;5.15;;
70228;SDS011;57617;51.988;5.854;2022-10-22T00:12:01;12.63;;;5.40;;
70228;SDS011;57617;51.988;5.854;2022-10-22T00:14:26;12.90;;;6.05;;
70228;SDS011;57617;51.988;5.854;2022-10-22T00:16:52;11.57;;;5.70;;
70228;SDS011;57617;51.988;5.854;2022-10-22T00:19:17;13.35;;;6.55;;
70228;SDS011;57617;51.988;5.854;2022-10-22T00:21:42;17.08;;;6.32;;
70228;SDS011;57617;51.988;5.854;2022-10-22T00:24:07;15.50;;;6.28;;
70228;SDS011;57617;51.988;5.854;2022-10-22T00:26:33;11.30;;;6.38;;
70228;SDS011;57617;51.988;5.854;2022-10-22T00:28:58;14.38;;;6.72;;
70228;SDS011;57617;51.988;5.854;2022-10-22T00:31:23;13.40;;;6.53;;
70228;SDS011;57617;51.988;5.854;2022-10-22T00:33:49;11.35;;;6.55;;
70228;SDS011;57617;51.988;5.854;2022-10-22T00:36:14;11.65;;;6.43;;
70228;SDS011;57617;51.988;5.854;2022-10-22T00:38:40;9.25;;;5.80;;
70228;SDS011;57617;51.988;5.854;2022-10-22T00:41:05;12.52;;;6.45;;
70228;SDS011;57617;51.988;5.854;2022-10-22T00:43:30;10.55;;;6.28;;
70228;SDS011;57617;51.988;5.854;2022-10-22T00:45:56;15.38;;;6.55;;
70228;SDS011;57617;51.988;5.854;2022-10-22T00:48:22;10.95;;;6.00;;
70228;SDS011;57617;51.988;5.854;2022-10-22T00:51:09;20.98;;;8.50;;
70228;SDS011;57617;51.988;5.854;2022-10-22T00:53:38;18.33;;;8.43;;
70228;SDS011;57617;51.988;5.854;2022-10-22T00:56:09;14.95;;;7.65;;
70228;SDS011;57617;51.988;5.854;2022-10-22T00:58:36;15.20;;;7.47;;
70228;SDS011;57617;51.988;5.854;2022-10-22T01:01:05;15.20;;;7.28;;
70228;SDS011;57617;51.988;5.854;2022-10-22T01:03:37;13.43;;;7.00;;
70228;SDS011;57617;51.988;5.854;2022-10-22T01:06:03;12.27;;;6.35;;
70228;SDS011;57617;51.988;5.854;2022-10-22T01:11:24;12.70;;;6.20;;
70228;SDS011;57617;51.988;5.854;2022-10-22T01:14:03;14.25;;;5.70;;
70228;SDS011;57617;51.988;5.854;2022-10-22T01:16:58;15.43;;;6.13;;
70228;SDS011;57617;51.988;5.854;2022-10-22T01:19:58;13.95;;;6.20;;
70228;SDS011;57617;51.988;5.854;2022-10-22T01:22:36;9.63;;;6.20;;
70228;SDS011;57617;51.988;5.854;2022-10-22T01:31:06;14.90;;;6.60;;
70228;SDS011;57617;51.988;5.854;2022-10-22T01:33:34;13.18;;;6.88;;
70228;SDS011;57617;51.988;5.854;2022-10-22T01:36:00;18.80;;;7.82;;
70228;SDS011;57617;51.988;5.854;2022-10-22T01:38:27;13.40;;;6.72;;
70228;SDS011;57617;51.988;5.854;2022-10-22T01:40:53;16.02;;;7.10;;
70228;SDS011;57617;51.988;5.854;2022-10-22T01:43:20;14.27;;;7.45;;
70228;SDS011;57617;51.988;5.854;2022-10-22T01:45:47;17.35;;;8.00;;
70228;SDS011;57617;51.988;5.854;2022-10-22T01:48:28;16.00;;;7.53;;
70228;SDS011;57617;51.988;5.854;2022-10-22T01:57:19;17.67;;;7.50;;
70228;SDS011;57617;51.988;5.854;2022-10-22T02:08:26;14.15;;;7.50;;
70228;SDS011;57617;51.988;5.854;2022-10-22T02:10:54;14.70;;;7.97;;
70228;SDS011;57617;51.988;5.854;2022-10-22T02:13:33;14.35;;;8.35;;
70228;SDS011;57617;51.988;5.854;2022-10-22T02:16:03;23.25;;;8.95;;
70228;SDS011;57617;51.988;5.854;2022-10-22T02:18:31;17.75;;;9.07;;
70228;SDS011;57617;51.988;5.854;2022-10-22T02:20:59;19.08;;;8.45;;
70228;SDS011;57617;51.988;5.854;2022-10-22T02:23:25;15.35;;;8.50;;
70228;SDS011;57617;51.988;5.854;2022-10-22T02:25:58;16.35;;;8.95;;
70228;SDS011;57617;51.988;5.854;2022-10-22T02:28:28;19.58;;;8.55;;
70228;SDS011;57617;51.988;5.854;2022-10-22T02:31:05;16.63;;;8.98;;
70228;SDS011;57617;51.988;5.854;2022-10-22T02:33:38;18.38;;;8.38;;
70228;SDS011;57617;51.988;5.854;2022-10-22T02:36:11;19.52;;;8.80;;
70228;SDS011;57617;51.988;5.854;2022-10-22T02:38:38;17.00;;;8.50;;
70228;SDS011;57617;51.988;5.854;2022-10-22T02:41:05;20.08;;;8.73;;
70228;SDS011;57617;51.988;5.854;2022-10-22T02:43:37;15.80;;;8.40;;
70228;SDS011;57617;51.988;5.854;2022-10-22T02:46:10;16.52;;;8.00;;
70228;SDS011;57617;51.988;5.854;2022-10-22T02:48:35;20.38;;;8.23;;
70228;SDS011;57617;51.988;5.854;2022-10-22T02:51:01;15.68;;;8.40;;
70228;SDS011;57617;51.988;5.854;2022-10-22T02:53:27;20.27;;;8.10;;
70228;SDS011;57617;51.988;5.854;2022-10-22T02:55:52;19.67;;;7.88;;
70228;SDS011;57617;51.988;5.854;2022-10-22T02:58:18;16.13;;;8.50;;
70228;SDS011;57617;51.988;5.854;2022-10-22T03:00:43;17.75;;;7.70;;
70228;SDS011;57617;51.988;5.854;2022-10-22T03:03:08;20.63;;;8.63;;
70228;SDS011;57617;51.988;5.854;2022-10-22T03:05:33;17.67;;;8.50;;
70228;SDS011;57617;51.988;5.854;2022-10-22T03:07:59;18.45;;;8.48;;
70228;SDS011;57617;51.988;5.854;2022-10-22T03:10:24;14.95;;;8.52;;
70228;SDS011;57617;51.988;5.854;2022-10-22T03:12:49;23.92;;;8.18;;
70228;SDS011;57617;51.988;5.854;2022-10-22T03:15:14;20.60;;;8.48;;
70228;SDS011;57617;51.988;5.854;2022-10-22T03:17:40;15.55;;;8.27;;
70228;SDS011;57617;51.988;5.854;2022-10-22T03:20:05;15.60;;;8.70;;
70228;SDS011;57617;51.988;5.854;2022-10-22T03:22:31;15.63;;;8.00;;
70228;SDS011;57617;51.988;5.854;2022-10-22T03:24:59;17.52;;;8.52;;
70228;SDS011;57617;51.988;5.854;2022-10-22T03:27:27;16.35;;;8.32;;
70228;SDS011;57617;51.988;5.854;2022-10-22T03:29:53;14.77;;;8.52;;
70228;SDS011;57617;51.988;5.854;2022-10-22T03:32:20;17.20;;;8.18;;
70228;SDS011;57617;51.988;5.854;2022-10-22T03:34:46;18.88;;;8.20;;
70228;SDS011;57617;51.988;5.854;2022-10-22T03:37:11;19.85;;;7.95;;
70228;SDS011;57617;51.988;5.854;2022-10-22T03:39:37;13.55;;;7.82;;
70228;SDS011;57617;51.988;5.854;2022-10-22T03:42:03;20.13;;;8.75;;
70228;SDS011;57617;51.988;5.854;2022-10-22T03:44:30;15.70;;;8.15;;
70228;SDS011;57617;51.988;5.854;2022-10-22T03:46:56;20.30;;;8.00;;
70228;SDS011;57617;51.988;5.854;2022-10-22T03:49:21;17.98;;;7.80;;
70228;SDS011;57617;51.988;5.854;2022-10-22T03:51:47;16.80;;;7.38;;
70228;SDS011;57617;51.988;5.854;2022-10-22T03:54:12;15.70;;;7.22;;
70228;SDS011;57617;51.988;5.854;2022-10-22T03:56:37;18.45;;;7.20;;
70228;SDS011;57617;51.988;5.854;2022-10-22T03:59:03;16.20;;;7.10;;
70228;SDS011;57617;51.988;5.854;2022-10-22T04:01:29;13.57;;;7.05;;
70228;SDS011;57617;51.988;5.854;2022-10-22T04:03:55;14.75;;;6.90;;
70228;SDS011;57617;51.988;5.854;2022-10-22T04:06:20;20.83;;;7.15;;
70228;SDS011;57617;51.988;5.854;2022-10-22T04:08:46;13.07;;;6.38;;
70228;SDS011;57617;51.988;5.854;2022-10-22T04:11:12;11.18;;;6.57;;
70228;SDS011;57617;51.988;5.854;2022-10-22T04:13:39;14.82;;;6.43;;
70228;SDS011;57617;51.988;5.854;2022-10-22T04:16:14;14.52;;;6.20;;
70228;SDS011;57617;51.988;5.854;2022-10-22T04:18:42;12.90;;;6.03;;
70228;SDS011;57617;51.988;5.854;2022-10-22T04:21:10;12.05;;;5.72;;
70228;SDS011;57617;51.988;5.854;2022-10-22T04:23:37;15.18;;;6.35;;
70228;SDS011;57617;51.988;5.854;2022-10-22T04:26:04;19.42;;;6.05;;
70228;SDS011;57617;51.988;5.854;2022-10-22T04:28:31;15.52;;;6.38;;
70228;SDS011;57617;51.988;5.854;2022-10-22T04:30:56;18.98;;;6.43;;
70228;SDS011;57617;51.988;5.854;2022-10-22T04:33:21;15.60;;;6.65;;
70228;SDS011;57617;51.988;5.854;2022-10-22T04:35:47;17.90;;;6.38;;
70228;SDS011;57617;51.988;5.854;2022-10-22T04:38:12;16.48;;;6.93;;
70228;SDS011;57617;51.988;5.854;2022-10-22T04:40:38;15.07;;;6.22;;
70228;SDS011;57617;51.988;5.854;2022-10-22T04:43:03;15.82;;;7.20;;
70228;SDS011;57617;51.988;5.854;2022-10-22T04:45:29;23.67;;;7.93;;
70228;SDS011;57617;51.988;5.854;2022-10-22T04:47:54;13.57;;;6.80;;
70228;SDS011;57617;51.988;5.854;2022-10-22T04:50:20;18.30;;;7.10;;
70228;SDS011;57617;51.988;5.854;2022-10-22T04:52:45;15.82;;;6.95;;
70228;SDS011;57617;51.988;5.854;2022-10-22T04:55:10;19.30;;;7.55;;
70228;SDS011;57617;51.988;5.854;2022-10-22T04:57:36;15.75;;;6.63;;
70228;SDS011;57617;51.988;5.854;2022-10-22T05:00:01;13.93;;;6.65;;
70228;SDS011;57617;51.988;5.854;2022-10-22T05:02:27;14.00;;;6.40;;
70228;SDS011;57617;51.988;5.854;2022-10-22T05:04:52;14.98;;;6.53;;
70228;SDS011;57617;51.988;5.854;2022-10-22T05:07:17;14.02;;;6.65;;
70228;SDS011;57617;51.988;5.854;2022-10-22T05:09:42;14.38;;;6.80;;
70228;SDS011;57617;51.988;5.854;2022-10-22T05:12:08;15.32;;;6.40;;
70228;SDS011;57617;51.988;5.854;2022-10-22T05:14:33;16.73;;;7.18;;
70228;SDS011;57617;51.988;5.854;2022-10-22T05:16:58;17.20;;;6.55;;
70228;SDS011;57617;51.988;5.854;2022-10-22T05:19:25;18.27;;;7.22;;
70228;SDS011;57617;51.988;5.854;2022-10-22T05:21:53;25.85;;;8.40;;
70228;SDS011;57617;51.988;5.854;2022-10-22T05:24:20;17.45;;;7.43;;
70228;SDS011;57617;51.988;5.854;2022-10-22T05:26:49;13.85;;;7.80;;
70228;SDS011;57617;51.988;5.854;2022-10-22T05:29:16;17.58;;;8.02;;
70228;SDS011;57617;51.988;5.854;2022-10-22T05:31:41;14.00;;;6.97;;
70228;SDS011;57617;51.988;5.854;2022-10-22T05:34:06;16.30;;;7.47;;
70228;SDS011;57617;51.988;5.854;2022-10-22T05:36:32;22.58;;;7.57;;
70228;SDS011;57617;51.988;5.854;2022-10-22T05:38:57;18.17;;;7.35;;
70228;SDS011;57617;51.988;5.854;2022-10-22T05:41:23;16.50;;;7.22;;
70228;SDS011;57617;51.988;5.854;2022-10-22T05:43:49;16.15;;;7.15;;
70228;SDS011;57617;51.988;5.854;2022-10-22T05:46:19;20.23;;;7.32;;
70228;SDS011;57617;51.988;5.854;2022-10-22T05:48:52;15.88;;;7.28;;
70228;SDS011;57617;51.988;5.854;2022-10-22T05:51:29;16.80;;;7.55;;
70228;SDS011;57617;51.988;5.854;2022-10-22T05:53:58;19.42;;;7.43;;
70228;SDS011;57617;51.988;5.854;2022-10-22T05:56:25;19.17;;;7.32;;
70228;SDS011;57617;51.988;5.854;2022-10-22T05:58:51;17.02;;;7.35;;
70228;SDS011;57617;51.988;5.854;2022-10-22T06:01:27;15.88;;;7.80;;
70228;SDS011;57617;51.988;5.854;2022-10-22T06:04:03;14.65;;;7.72;;
70228;SDS011;57617;51.988;5.854;2022-10-22T06:06:41;18.35;;;7.78;;
70228;SDS011;57617;51.988;5.854;2022-10-22T06:09:19;17.38;;;8.07;;
70228;SDS011;57617;51.988;5.854;2022-10-22T06:11:48;19.63;;;8.07;;
70228;SDS011;57617;51.988;5.854;2022-10-22T06:14:13;17.80;;;8.20;;
70228;SDS011;57617;51.988;5.854;2022-10-22T06:16:39;18.25;;;8.02;;
70228;SDS011;57617;51.988;5.854;2022-10-22T06:19:05;14.13;;;7.72;;
70228;SDS011;57617;51.988;5.854;2022-10-22T06:21:30;16.65;;;7.60;;
70228;SDS011;57617;51.988;5.854;2022-10-22T06:23:57;19.30;;;7.47;;
70228;SDS011;57617;51.988;5.854;2022-10-22T06:26:23;19.10;;;7.45;;
70228;SDS011;57617;51.988;5.854;2022-10-22T06:28:49;21.30;;;7.53;;
70228;SDS011;57617;51.988;5.854;2022-10-22T06:31:14;16.02;;;7.72;;
70228;SDS011;57617;51.988;5.854;2022-10-22T06:33:39;19.52;;;7.05;;
70228;SDS011;57617;51.988;5.854;2022-10-22T06:36:08;14.68;;;7.20;;
70228;SDS011;57617;51.988;5.854;2022-10-22T06:38:35;18.08;;;7.38;;
70228;SDS011;57617;51.988;5.854;2022-10-22T06:41:07;17.90;;;7.32;;
70228;SDS011;57617;51.988;5.854;2022-10-22T06:43:36;20.05;;;7.40;;
70228;SDS011;57617;51.988;5.854;2022-10-22T06:46:03;16.75;;;6.72;;
70228;SDS011;57617;51.988;5.854;2022-10-22T06:48:31;18.52;;;7.32;;
70228;SDS011;57617;51.988;5.854;2022-10-22T06:50:59;18.77;;;6.85;;
70228;SDS011;57617;51.988;5.854;2022-10-22T06:53:27;17.67;;;6.88;;
70228;SDS011;57617;51.988;5.854;2022-10-22T06:55:52;19.40;;;7.00;;
70228;SDS011;57617;51.988;5.854;2022-10-22T06:58:17;20.67;;;7.78;;
70228;SDS011;57617;51.988;5.854;2022-10-22T07:00:42;15.48;;;7.15;;
70228;SDS011;57617;51.988;5.854;2022-10-22T07:03:10;17.45;;;7.10;;
70228;SDS011;57617;51.988;5.854;2022-10-22T07:05:37;14.73;;;6.85;;
70228;SDS011;57617;51.988;5.854;2022-10-22T07:08:02;15.77;;;7.65;;
70228;SDS011;57617;51.988;5.854;2022-10-22T07:10:28;14.32;;;6.95;;
70228;SDS011;57617;51.988;5.854;2022-10-22T07:12:53;16.42;;;6.80;;
70228;SDS011;57617;51.988;5.854;2022-10-22T07:15:18;16.35;;;6.78;;
70228;SDS011;57617;51.988;5.854;2022-10-22T07:17:43;20.05;;;6.75;;
70228;SDS011;57617;51.988;5.854;2022-10-22T07:20:09;20.65;;;7.38;;
70228;SDS011;57617;51.988;5.854;2022-10-22T07:22:34;20.15;;;6.55;;
70228;SDS011;57617;51.988;5.854;2022-10-22T07:25:00;14.65;;;6.63;;
70228;SDS011;57617;51.988;5.854;2022-10-22T07:27:25;21.98;;;7.50;;
70228;SDS011;57617;51.988;5.854;2022-10-22T07:29:50;15.60;;;6.60;;
70228;SDS011;57617;51.988;5.854;2022-10-22T07:32:15;16.30;;;7.25;;
70228;SDS011;57617;51.988;5.854;2022-10-22T07:34:41;18.75;;;6.95;;
70228;SDS011;57617;51.988;5.854;2022-10-22T07:37:06;17.33;;;6.38;;
70228;SDS011;57617;51.988;5.854;2022-10-22T07:39:31;14.55;;;6.32;;
70228;SDS011;57617;51.988;5.854;2022-10-22T07:41:56;22.55;;;6.60;;
70228;SDS011;57617;51.988;5.854;2022-10-22T07:44:22;17.13;;;6.45;;
70228;SDS011;57617;51.988;5.854;2022-10-22T07:46:47;19.80;;;6.65;;
70228;SDS011;57617;51.988;5.854;2022-10-22T07:49:12;20.95;;;6.25;;
70228;SDS011;57617;51.988;5.854;2022-10-22T07:51:37;17.30;;;6.28;;
70228;SDS011;57617;51.988;5.854;2022-10-22T07:54:03;20.83;;;5.75;;
70228;SDS011;57617;51.988;5.854;2022-10-22T07:56:28;13.77;;;6.22;;
70228;SDS011;57617;51.988;5.854;2022-10-22T07:58:53;16.55;;;6.05;;
70228;SDS011;57617;51.988;5.854;2022-10-22T08:01:19;20.95;;;6.45;;
70228;SDS011;57617;51.988;5.854;2022-10-22T08:03:44;21.70;;;5.80;;
70228;SDS011;57617;51.988;5.854;2022-10-22T08:06:11;14.50;;;6.00;;
70228;SDS011;57617;51.988;5.854;2022-10-22T08:08:37;17.88;;;5.90;;
70228;SDS011;57617;51.988;5.854;2022-10-22T08:11:03;16.75;;;6.28;;
70228;SDS011;57617;51.988;5.854;2022-10-22T08:13:28;18.50;;;5.85;;
70228;SDS011;57617;51.988;5.854;2022-10-22T08:15:54;16.92;;;5.70;;
70228;SDS011;57617;51.988;5.854;2022-10-22T08:18:20;16.08;;;5.72;;
70228;SDS011;57617;51.988;5.854;2022-10-22T08:20:46;13.52;;;5.30;;
70228;SDS011;57617;51.988;5.854;2022-10-22T08:23:11;17.52;;;5.20;;
70228;SDS011;57617;51.988;5.854;2022-10-22T08:25:36;13.48;;;4.60;;
70228;SDS011;57617;51.988;5.854;2022-10-22T08:28:02;21.25;;;5.07;;
70228;SDS011;57617;51.988;5.854;2022-10-22T08:30:27;17.42;;;4.50;;
70228;SDS011;57617;51.988;5.854;2022-10-22T08:32:53;14.63;;;4.60;;
70228;SDS011;57617;51.988;5.854;2022-10-22T08:35:19;12.15;;;4.70;;
70228;SDS011;57617;51.988;5.854;2022-10-22T08:37:44;13.43;;;4.45;;
70228;SDS011;57617;51.988;5.854;2022-10-22T08:40:11;12.43;;;3.97;;
70228;SDS011;57617;51.988;5.854;2022-10-22T08:43:10;12.05;;;4.03;;
70228;SDS011;57617;51.988;5.854;2022-10-22T08:45:58;13.60;;;4.20;;
70228;SDS011;57617;51.988;5.854;2022-10-22T08:48:38;17.25;;;4.45;;
70228;SDS011;57617;51.988;5.854;2022-10-22T08:51:12;15.48;;;4.38;;
70228;SDS011;57617;51.988;5.854;2022-10-22T08:53:48;19.15;;;3.92;;
70228;SDS011;57617;51.988;5.854;2022-10-22T08:56:22;13.45;;;3.85;;
70228;SDS011;57617;51.988;5.854;2022-10-22T08:58:50;16.30;;;4.00;;
70228;SDS011;57617;51.988;5.854;2022-10-22T09:01:23;17.85;;;4.18;;
70228;SDS011;57617;51.988;5.854;2022-10-22T09:06:41;12.48;;;3.45;;
70228;SDS011;57617;51.988;5.854;2022-10-22T09:09:13;18.17;;;4.00;;
70228;SDS011;57617;51.988;5.854;2022-10-22T09:11:42;15.95;;;3.53;;
70228;SDS011;57617;51.988;5.854;2022-10-22T09:14:13;17.80;;;3.30;;
70228;SDS011;57617;51.988;5.854;2022-10-22T09:23:13;10.48;;;3.38;;
70228;SDS011;57617;51.988;5.854;2022-10-22T09:25:46;20.73;;;3.50;;
70228;SDS011;57617;51.988;5.854;2022-10-22T09:28:15;13.35;;;3.60;;
70228;SDS011;57617;51.988;5.854;2022-10-22T09:30:40;13.02;;;3.17;;
70228;SDS011;57617;51.988;5.854;2022-10-22T09:33:18;13.85;;;3.17;;
70228;SDS011;57617;51.988;5.854;2022-10-22T09:35:55;16.38;;;3.45;;
70228;SDS011;57617;51.988;5.854;2022-10-22T09:38:30;16.92;;;3.30;;
70228;SDS011;57617;51.988;5.854;2022-10-22T09:40:58;11.35;;;3.38;;
70228;SDS011;57617;51.988;5.854;2022-10-22T09:43:27;14.93;;;3.20;;
70228;SDS011;57617;51.988;5.854;2022-10-22T09:46:00;18.20;;;3.42;;
70228;SDS011;57617;51.988;5.854;2022-10-22T09:48:29;13.30;;;3.05;;
70228;SDS011;57617;51.988;5.854;2022-10-22T09:53:30;13.18;;;3.70;;
70228;SDS011;57617;51.988;5.854;2022-10-22T09:56:02;8.57;;;3.00;;
70228;SDS011;57617;51.988;5.854;2022-10-22T09:58:45;13.15;;;3.10;;
70228;SDS011;57617;51.988;5.854;2022-10-22T10:01:23;9.48;;;3.50;;
70228;SDS011;57617;51.988;5.854;2022-10-22T10:03:53;10.55;;;3.40;;
70228;SDS011;57617;51.988;5.854;2022-10-22T10:06:25;21.60;;;3.90;;
70228;SDS011;57617;51.988;5.854;2022-10-22T10:08:56;12.60;;;3.80;;
70228;SDS011;57617;51.988;5.854;2022-10-22T10:14:31;20.42;;;3.80;;
70228;SDS011;57617;51.988;5.854;2022-10-22T10:16:58;10.10;;;3.78;;
70228;SDS011;57617;51.988;5.854;2022-10-22T10:19:52;16.33;;;4.28;;
70228;SDS011;57617;51.988;5.854;2022-10-22T10:25:39;13.57;;;3.83;;
70228;SDS011;57617;51.988;5.854;2022-10-22T10:30:40;15.70;;;4.10;;
70228;SDS011;57617;51.988;5.854;2022-10-22T10:35:55;15.10;;;4.35;;
70228;SDS011;57617;51.988;5.854;2022-10-22T10:41:15;18.98;;;4.82;;
70228;SDS011;57617;51.988;5.854;2022-10-22T10:49:44;9.93;;;4.18;;
70228;SDS011;57617;51.988;5.854;2022-10-22T10:54:53;15.85;;;4.38;;
70228;SDS011;57617;51.988;5.854;2022-10-22T11:00:27;17.10;;;5.60;;
70228;SDS011;57617;51.988;5.854;2022-10-22T11:03:03;13.48;;;5.10;;
70228;SDS011;57617;51.988;5.854;2022-10-22T11:05:53;13.48;;;4.60;;
70228;SDS011;57617;51.988;5.854;2022-10-22T11:08:27;15.95;;;5.10;;
70228;SDS011;57617;51.988;5.854;2022-10-22T11:10:58;13.85;;;5.30;;
70228;SDS011;57617;51.988;5.854;2022-10-22T11:13:30;15.18;;;5.00;;
70228;SDS011;57617;51.988;5.854;2022-10-22T11:18:54;21.45;;;5.00;;
70228;SDS011;57617;51.988;5.854;2022-10-22T11:23:53;17.35;;;4.47;;
70228;SDS011;57617;51.988;5.854;2022-10-22T11:29:23;14.73;;;4.07;;
70228;SDS011;57617;51.988;5.854;2022-10-22T11:31:52;9.88;;;3.75;;
70228;SDS011;57617;51.988;5.854;2022-10-22T11:34:24;13.43;;;4.43;;
70228;SDS011;57617;51.988;5.854;2022-10-22T11:37:00;13.15;;;3.75;;
70228;SDS011;57617;51.988;5.854;2022-10-22T11:39:39;17.27;;;4.10;;
70228;SDS011;57617;51.988;5.854;2022-10-22T11:42:18;11.15;;;3.17;;
70228;SDS011;57617;51.988;5.854;2022-10-22T11:47:56;11.82;;;3.30;;
70228;SDS011;57617;51.988;5.854;2022-10-22T11:50:51;16.83;;;3.67;;
70228;SDS011;57617;51.988;5.854;2022-10-22T11:55:49;10.93;;;2.80;;
70228;SDS011;57617;51.988;5.854;2022-10-22T11:58:33;11.98;;;3.17;;
70228;SDS011;57617;51.988;5.854;2022-10-22T12:06:15;9.38;;;2.92;;
70228;SDS011;57617;51.988;5.854;2022-10-22T12:11:14;14.07;;;3.28;;
70228;SDS011;57617;51.988;5.854;2022-10-22T12:16:23;10.27;;;2.70;;
70228;SDS011;57617;51.988;5.854;2022-10-22T12:18:52;13.15;;;3.00;;
70228;SDS011;57617;51.988;5.854;2022-10-22T12:21:22;12.15;;;2.90;;
70228;SDS011;57617;51.988;5.854;2022-10-22T12:23:48;13.45;;;2.92;;
70228;SDS011;57617;51.988;5.854;2022-10-22T12:26:25;15.80;;;3.35;;
70228;SDS011;57617;51.988;5.854;2022-10-22T12:29:02;14.50;;;3.00;;
70228;SDS011;57617;51.988;5.854;2022-10-22T12:31:34;15.63;;;2.80;;
70228;SDS011;57617;51.988;5.854;2022-10-22T12:34:01;13.82;;;2.67;;
70228;SDS011;57617;51.988;5.854;2022-10-22T12:36:27;14.90;;;2.95;;
70228;SDS011;57617;51.988;5.854;2022-10-22T12:38:54;14.40;;;3.00;;
70228;SDS011;57617;51.988;5.854;2022-10-22T12:41:29;12.73;;;2.78;;
70228;SDS011;57617;51.988;5.854;2022-10-22T12:44:02;13.93;;;2.88;;
70228;SDS011;57617;51.988;5.854;2022-10-22T12:46:29;15.15;;;2.60;;
70228;SDS011;57617;51.988;5.854;2022-10-22T12:49:01;16.83;;;2.47;;
70228;SDS011;57617;51.988;5.854;2022-10-22T12:51:29;18.02;;;2.67;;
70228;SDS011;57617;51.988;5.854;2022-10-22T12:53:56;10.68;;;2.30;;
70228;SDS011;57617;51.988;5.854;2022-10-22T12:56:31;16.05;;;2.50;;
70228;SDS011;57617;51.988;5.854;2022-10-22T12:58:59;12.05;;;2.40;;
70228;SDS011;57617;51.988;5.854;2022-10-22T13:01:28;15.48;;;2.50;;
70228;SDS011;57617;51.988;5.854;2022-10-22T13:04:03;15.52;;;2.38;;
70228;SDS011;57617;51.988;5.854;2022-10-22T13:06:28;16.25;;;2.75;;
70228;SDS011;57617;51.988;5.854;2022-10-22T13:09:10;12.32;;;2.30;;
70228;SDS011;57617;51.988;5.854;2022-10-22T13:11:41;17.08;;;2.75;;
70228;SDS011;57617;51.988;5.854;2022-10-22T13:17:02;19.60;;;2.90;;
70228;SDS011;57617;51.988;5.854;2022-10-22T13:20:15;10.98;;;2.92;;
70228;SDS011;57617;51.988;5.854;2022-10-22T13:27:43;16.98;;;2.95;;
70228;SDS011;57617;51.988;5.854;2022-10-22T13:30:23;16.13;;;3.30;;
70228;SDS011;57617;51.988;5.854;2022-10-22T13:32:51;14.65;;;2.78;;
70228;SDS011;57617;51.988;5.854;2022-10-22T13:35:28;14.90;;;2.65;;
70228;SDS011;57617;51.988;5.854;2022-10-22T13:37:56;13.23;;;2.95;;
70228;SDS011;57617;51.988;5.854;2022-10-22T13:40:21;19.23;;;3.30;;
70228;SDS011;57617;51.988;5.854;2022-10-22T13:42:46;19.63;;;3.83;;
70228;SDS011;57617;51.988;5.854;2022-10-22T13:45:12;14.23;;;3.22;;
70228;SDS011;57617;51.988;5.854;2022-10-22T13:47:38;13.35;;;3.35;;
70228;SDS011;57617;51.988;5.854;2022-10-22T13:50:06;16.08;;;3.50;;
70228;SDS011;57617;51.988;5.854;2022-10-22T13:52:53;15.32;;;3.83;;
70228;SDS011;57617;51.988;5.854;2022-10-22T13:55:23;18.55;;;3.47;;
70228;SDS011;57617;51.988;5.854;2022-10-22T13:57:54;22.30;;;3.80;;
70228;SDS011;57617;51.988;5.854;2022-10-22T14:00:21;17.27;;;3.50;;
70228;SDS011;57617;51.988;5.854;2022-10-22T14:02:48;14.25;;;3.47;;
70228;SDS011;57617;51.988;5.854;2022-10-22T14:05:16;18.90;;;3.70;;
70228;SDS011;57617;51.988;5.854;2022-10-22T14:07:42;15.23;;;3.90;;
70228;SDS011;57617;51.988;5.854;2022-10-22T14:10:13;13.23;;;3.72;;
70228;SDS011;57617;51.988;5.854;2022-10-22T14:12:40;16.90;;;3.55;;
70228;SDS011;57617;51.988;5.854;2022-10-22T14:15:06;21.50;;;3.13;;
70228;SDS011;57617;51.988;5.854;2022-10-22T14:17:33;16.48;;;3.20;;
70228;SDS011;57617;51.988;5.854;2022-10-22T14:19:58;15.88;;;3.08;;
70228;SDS011;57617;51.988;5.854;2022-10-22T14:22:23;14.40;;;3.28;;
70228;SDS011;57617;51.988;5.854;2022-10-22T14:24:52;16.17;;;3.42;;
70228;SDS011;57617;51.988;5.854;2022-10-22T14:27:18;16.50;;;3.78;;
70228;SDS011;57617;51.988;5.854;2022-10-22T14:29:43;12.63;;;3.00;;
70228;SDS011;57617;51.988;5.854;2022-10-22T14:32:11;14.85;;;3.40;;
70228;SDS011;57617;51.988;5.854;2022-10-22T14:34:38;13.32;;;3.00;;
70228;SDS011;57617;51.988;5.854;2022-10-22T14:37:03;16.98;;;4.07;;
70228;SDS011;57617;51.988;5.854;2022-10-22T14:39:28;14.18;;;3.45;;
70228;SDS011;57617;51.988;5.854;2022-10-22T14:41:54;15.43;;;4.00;;
70228;SDS011;57617;51.988;5.854;2022-10-22T14:44:19;14.23;;;3.53;;
70228;SDS011;57617;51.988;5.854;2022-10-22T14:46:44;18.45;;;3.40;;
70228;SDS011;57617;51.988;5.854;2022-10-22T14:49:10;18.27;;;3.58;;
70228;SDS011;57617;51.988;5.854;2022-10-22T14:51:36;18.90;;;5.00;;
70228;SDS011;57617;51.988;5.854;2022-10-22T14:54:01;19.33;;;5.53;;
70228;SDS011;57617;51.988;5.854;2022-10-22T14:56:27;19.38;;;5.10;;
70228;SDS011;57617;51.988;5.854;2022-10-22T14:58:52;16.75;;;4.35;;
70228;SDS011;57617;51.988;5.854;2022-10-22T15:01:17;14.20;;;4.38;;
70228;SDS011;57617;51.988;5.854;2022-10-22T15:03:43;21.55;;;4.55;;
70228;SDS011;57617;51.988;5.854;2022-10-22T15:06:08;21.92;;;4.82;;
70228;SDS011;57617;51.988;5.854;2022-10-22T15:08:33;17.02;;;4.70;;
70228;SDS011;57617;51.988;5.854;2022-10-22T15:10:59;14.77;;;3.33;;
70228;SDS011;57617;51.988;5.854;2022-10-22T15:13:27;14.32;;;4.28;;
70228;SDS011;57617;51.988;5.854;2022-10-22T15:15:53;20.30;;;4.05;;
70228;SDS011;57617;51.988;5.854;2022-10-22T15:18:19;19.40;;;4.10;;
70228;SDS011;57617;51.988;5.854;2022-10-22T15:20:44;16.52;;;3.90;;
70228;SDS011;57617;51.988;5.854;2022-10-22T15:23:09;15.77;;;4.40;;
70228;SDS011;57617;51.988;5.854;2022-10-22T15:25:35;21.45;;;4.00;;
70228;SDS011;57617;51.988;5.854;2022-10-22T15:28:00;17.60;;;3.85;;
70228;SDS011;57617;51.988;5.854;2022-10-22T15:30:25;18.35;;;3.95;;
70228;SDS011;57617;51.988;5.854;2022-10-22T15:32:50;17.88;;;4.38;;
70228;SDS011;57617;51.988;5.854;2022-10-22T15:35:16;23.92;;;4.07;;
70228;SDS011;57617;51.988;5.854;2022-10-22T15:37:41;19.55;;;4.63;;
70228;SDS011;57617;51.988;5.854;2022-10-22T15:40:06;19.90;;;4.28;;
70228;SDS011;57617;51.988;5.854;2022-10-22T15:42:32;19.70;;;5.20;;
70228;SDS011;57617;51.988;5.854;2022-10-22T15:44:58;21.90;;;7.20;;
70228;SDS011;57617;51.988;5.854;2022-10-22T15:47:23;18.98;;;5.13;;
70228;SDS011;57617;51.988;5.854;2022-10-22T15:49:52;25.13;;;6.30;;
70228;SDS011;57617;51.988;5.854;2022-10-22T15:52:18;21.38;;;5.20;;
70228;SDS011;57617;51.988;5.854;2022-10-22T15:54:45;17.75;;;6.32;;
70228;SDS011;57617;51.988;5.854;2022-10-22T15:57:10;24.77;;;8.00;;
70228;SDS011;57617;51.988;5.854;2022-10-22T15:59:36;23.52;;;5.93;;
70228;SDS011;57617;51.988;5.854;2022-10-22T16:02:02;22.58;;;5.00;;
70228;SDS011;57617;51.988;5.854;2022-10-22T16:04:28;28.38;;;5.70;;
70228;SDS011;57617;51.988;5.854;2022-10-22T16:06:53;24.25;;;5.72;;
70228;SDS011;57617;51.988;5.854;2022-10-22T16:09:23;14.80;;;6.47;;
70228;SDS011;57617;51.988;5.854;2022-10-22T16:11:50;25.20;;;6.55;;
70228;SDS011;57617;51.988;5.854;2022-10-22T16:14:17;24.25;;;4.60;;
70228;SDS011;57617;51.988;5.854;2022-10-22T16:16:45;25.52;;;5.35;;
70228;SDS011;57617;51.988;5.854;2022-10-22T16:19:12;18.15;;;5.32;;